Time;durP1;ratioP1;P1;durP2;ratioP2;P2;SDS_P1;SDS_P2;PMS_P1;PMS_P2;Temp;Humidity;BMP_temperature;BMP_pressure;BME280_temperature;BME280_humidity;BME280_pressure;Samples;Min_cycle;Max_cycle;Signal;HPM_P1;HPM_P2
2023/02/13 06:54:23;;;;;;;3.00;2.10;;;;;;;;;;10592186;27;20488;-84
2023/02/13 06:59:24;;;;;;;5.13;3.67;;;;;;;;;;10591784;28;20034;-84
2023/02/13 07:04:25;;;;;;;4.80;3.13;;;;;;;;;;10593360;28;20024;-84
2023/02/13 07:09:26;;;;;;;5.60;4.10;;;;;;;;;;10589617;28;20031;-84
2023/02/13 07:14:27;;;;;;;4.88;3.58;;;;;;;;;;10588447;28;20032;-84
2023/02/13 07:19:28;;;;;;;7.05;5.32;;;;;;;;;;10588794;28;20056;-84
2023/02/13 07:24:29;;;;;;;4.00;3.20;;;;;;;;;;10555941;28;20051;-83
2023/02/13 07:29:30;;;;;;;;;;;;;;;;;;10550467;28;20078;-84
2023/02/13 07:34:31;;;;;;;3.17;2.40;;;;;;;;;;10552372;28;19904;-84
2023/02/13 07:39:38;;;;;;;4.07;2.72;;;;;;;;;;10553163;28;20028;-84
2023/02/13 07:44:39;;;;;;;5.63;3.72;;;;;;;;;;10550657;28;20366;-84
2023/02/13 07:49:40;;;;;;;;;;;;;;;;;;10550756;28;20059;-84
2023/02/13 07:54:46;;;;;;;4.25;3.10;;;;;;;;;;10546907;28;19911;-84
2023/02/13 07:59:47;;;;;;;4.05;2.95;;;;;;;;;;10546058;28;20024;-83
2023/02/13 08:04:47;;;;;;;;;;;;;;;;;;10533429;28;20052;-83
2023/02/13 08:15:11;;;;;;;5.00;3.80;;;;;;;;;;10517978;28;20024;-82
2023/02/13 08:20:12;;;;;;;5.80;4.22;;;;;;;;;;10515011;28;20396;-84
2023/02/13 08:25:12;;;;;;;;;;;;;;;;;;10521320;28;20084;-84
2023/02/13 08:30:14;;;;;;;7.60;4.25;;;;;;;;;;10530422;28;20080;-85
2023/02/13 08:35:15;;;;;;;6.40;4.55;;;;;;;;;;10519469;28;20024;-85
2023/02/13 08:40:16;;;;;;;;;;;;;;;;;;10534464;28;20478;-85
2023/02/13 08:45:17;;;;;;;7.07;5.03;;;;;;;;;;10509521;28;19905;-84
2023/02/13 08:50:18;;;;;;;;;;;;;;;;;;10510099;28;20059;-85
2023/02/13 08:55:19;;;;;;;6.93;4.00;;;;;;;;;;10509424;28;19911;-85
2023/02/13 09:00:24;;;;;;;5.45;3.80;;;;;;;;;;10505860;28;20485;-86
2023/02/13 09:05:25;;;;;;;6.55;4.03;;;;;;;;;;10494315;28;20146;-83
2023/02/13 09:10:26;;;;;;;;;;;;;;;;;;10513812;28;20032;-84
2023/02/13 09:15:27;;;;;;;5.90;4.32;;;;;;;;;;10509680;28;19908;-83
2023/02/13 09:20:28;;;;;;;;;;;;;;;;;;10518379;28;20080;-82
2023/02/13 09:25:29;;;;;;;10.30;7.35;;;;;;;;;;10517622;28;19958;-84
2023/02/13 09:30:35;;;;;;;7.30;4.93;;;;;;;;;;10514099;28;20063;-82
2023/02/13 09:35:41;;;;;;;6.70;4.28;;;;;;;;;;10517292;28;20055;-82
2023/02/13 09:40:48;;;;;;;6.07;4.05;;;;;;;;;;10522057;28;20024;-82
2023/02/13 09:45:50;;;;;;;8.88;4.68;;;;;;;;;;10529490;28;20029;-81
2023/02/13 09:50:51;;;;;;;10.75;5.60;;;;;;;;;;10522540;28;20028;-84
2023/02/13 09:55:55;;;;;;;8.57;4.38;;;;;;;;;;10523520;28;20040;-82
2023/02/13 10:00:57;;;;;;;8.00;4.95;;;;;;;;;;10518897;28;20433;-82
2023/02/13 10:05:58;;;;;;;6.82;4.50;;;;;;;;;;10510897;28;20103;-84
2023/02/13 10:11:06;;;;;;;9.35;5.80;;;;;;;;;;10520706;28;20057;-83
2023/02/13 10:16:11;;;;;;;5.65;3.45;;;;;;;;;;10520533;28;20115;-84
2023/02/13 10:21:23;;;;;;;5.60;4.10;;;;;;;;;;10522551;28;20020;-84
2023/02/13 10:26:41;;;;;;;7.78;3.97;;;;;;;;;;10524441;28;20024;-84
2023/02/13 10:31:44;;;;;;;5.25;3.90;;;;;;;;;;10534311;28;20092;-84
2023/02/13 10:36:46;;;;;;;7.43;3.58;;;;;;;;;;10522390;28;20027;-83
2023/02/13 10:42:06;;;;;;;7.25;3.55;;;;;;;;;;10524459;28;20025;-84
2023/02/13 10:47:10;;;;;;;5.55;4.10;;;;;;;;;;10525615;28;20024;-84
2023/02/13 10:52:17;;;;;;;4.75;3.03;;;;;;;;;;10525460;28;20032;-84
2023/02/13 10:57:18;;;;;;;6.25;5.25;;;;;;;;;;10530422;28;20021;-84
2023/02/13 11:02:19;;;;;;;;;;;;;;;;;;10524098;28;20044;-84
2023/02/13 11:07:23;;;;;;;5.57;3.85;;;;;;;;;;10526100;28;19944;-84
2023/02/13 11:12:25;;;;;;;9.20;6.15;;;;;;;;;;10531177;28;20077;-84
2023/02/13 11:17:28;;;;;;;7.40;4.32;;;;;;;;;;10527347;28;20051;-83
2023/02/13 11:22:33;;;;;;;7.40;5.32;;;;;;;;;;10530318;28;20028;-83
2023/02/13 11:27:36;;;;;;;10.50;8.38;;;;;;;;;;10529585;28;20039;-83
2023/02/13 11:32:37;;;;;;;6.03;4.90;;;;;;;;;;10527269;28;20052;-83
2023/02/13 11:37:39;;;;;;;6.00;4.45;;;;;;;;;;10520884;28;20040;-85
2023/02/13 11:42:42;;;;;;;5.32;4.25;;;;;;;;;;10521998;28;20032;-86
2023/02/13 11:47:47;;;;;;;5.45;4.45;;;;;;;;;;10521859;28;20028;-84
2023/02/13 11:53:11;;;;;;;8.70;5.72;;;;;;;;;;10516313;28;20157;-84
2023/02/13 11:58:22;;;;;;;5.90;4.57;;;;;;;;;;10512399;28;20478;-83
2023/02/13 12:03:25;;;;;;;6.10;4.85;;;;;;;;;;10540275;22;20053;-82
2023/02/13 12:08:27;;;;;;;5.05;3.90;;;;;;;;;;10497881;28;20093;-82
2023/02/13 12:13:33;;;;;;;7.60;5.00;;;;;;;;;;10523506;28;20029;-81
2023/02/13 12:18:37;;;;;;;5.70;3.90;;;;;;;;;;10558388;28;20477;-81
2023/02/13 12:23:56;;;;;;;5.32;4.05;;;;;;;;;;10544920;28;20034;-81
2023/02/13 12:29:08;;;;;;;5.78;4.35;;;;;;;;;;10558962;28;20034;-80
2023/02/13 12:34:13;;;;;;;6.35;4.80;;;;;;;;;;10555030;28;20052;-81
2023/02/13 12:39:30;;;;;;;7.80;5.43;;;;;;;;;;10559635;28;20016;-81
2023/02/13 12:45:03;;;;;;;6.35;5.15;;;;;;;;;;10573460;28;20022;-80
2023/02/13 12:50:23;;;;;;;6.18;3.90;;;;;;;;;;10498715;28;20103;-82
2023/02/13 12:55:24;;;;;;;7.32;5.35;;;;;;;;;;10539872;28;20028;-82
2023/02/13 13:00:33;;;;;;;6.57;4.82;;;;;;;;;;10539604;28;20124;-82
2023/02/13 13:05:38;;;;;;;5.45;4.22;;;;;;;;;;10539396;28;20556;-82
2023/02/13 13:11:06;;;;;;;5.75;3.97;;;;;;;;;;10538460;28;20028;-82
2023/02/13 13:16:30;;;;;;;4.68;3.20;;;;;;;;;;10557178;28;20028;-82
2023/02/13 13:21:31;;;;;;;7.05;4.88;;;;;;;;;;10501552;28;20131;-80
2023/02/13 13:26:37;;;;;;;8.45;4.90;;;;;;;;;;10536190;28;20060;-80
2023/02/13 13:31:39;;;;;;;17.25;12.73;;;;;;;;;;10537591;28;20027;-82
2023/02/13 13:36:40;;;;;;;9.80;7.63;;;;;;;;;;10538462;28;20035;-82
2023/02/13 13:42:01;;;;;;;6.38;4.45;;;;;;;;;;10536365;28;20059;-83
2023/02/13 13:47:15;;;;;;;6.45;4.50;;;;;;;;;;10496843;28;20089;-82
2023/02/13 13:52:19;;;;;;;5.28;4.28;;;;;;;;;;10538005;28;20073;-83
2023/02/13 13:57:47;;;;;;;8.40;6.30;;;;;;;;;;10536486;28;20028;-82
2023/02/13 14:03:08;;;;;;;11.30;8.30;;;;;;;;;;10524372;28;20044;-83
2023/02/13 14:08:38;;;;;;;7.75;5.18;;;;;;;;;;10539792;28;20028;-82
2023/02/13 14:13:41;;;;;;;6.07;4.30;;;;;;;;;;10532046;28;20134;-83
2023/02/13 14:18:45;;;;;;;7.68;5.28;;;;;;;;;;10529140;28;20016;-83
2023/02/13 14:23:52;;;;;;;6.60;4.97;;;;;;;;;;10529593;28;20024;-81
2023/02/13 14:28:58;;;;;;;5.97;4.63;;;;;;;;;;10536138;28;20028;-82
2023/02/13 14:34:17;;;;;;;6.35;4.15;;;;;;;;;;10540627;28;20036;-82
2023/02/13 14:39:23;;;;;;;5.97;4.03;;;;;;;;;;10538361;28;20114;-83
2023/02/13 14:44:36;;;;;;;6.43;4.53;;;;;;;;;;10541996;28;20119;-84
2023/02/13 14:49:41;;;;;;;6.55;4.88;;;;;;;;;;10543591;28;20032;-82
2023/02/13 14:54:44;;;;;;;31.05;23.08;;;;;;;;;;10547873;28;20021;-82
2023/02/13 15:00:07;;;;;;;6.97;5.85;;;;;;;;;;10550826;28;20048;-81
2023/02/13 15:05:18;;;;;;;5.68;4.20;;;;;;;;;;10554378;28;20024;-82
2023/02/13 15:10:28;;;;;;;5.45;3.90;;;;;;;;;;10545085;28;20028;-81
2023/02/13 15:15:31;;;;;;;6.97;4.38;;;;;;;;;;10554778;28;20028;-80
2023/02/13 15:20:34;;;;;;;7.10;4.18;;;;;;;;;;10543710;28;20020;-81
2023/02/13 15:25:39;;;;;;;8.05;5.40;;;;;;;;;;10543648;28;20339;-80
2023/02/13 15:30:40;;;;;;;9.57;5.45;;;;;;;;;;10542668;28;20031;-80
2023/02/13 15:35:41;;;;;;;4.30;3.45;;;;;;;;;;10544616;28;20049;-81
2023/02/13 15:40:43;;;;;;;6.57;3.80;;;;;;;;;;10542210;28;20028;-81
2023/02/13 15:45:44;;;;;;;4.50;3.80;;;;;;;;;;10542259;28;20024;-81
2023/02/13 15:50:46;;;;;;;5.97;4.30;;;;;;;;;;10541362;28;20151;-81
2023/02/13 15:56:01;;;;;;;22.63;13.63;;;;;;;;;;10542044;28;20020;-81
2023/02/13 16:01:05;;;;;;;7.32;4.72;;;;;;;;;;10540772;28;20469;-81
2023/02/13 16:06:06;;;;;;;4.95;3.50;;;;;;;;;;10542319;28;20451;-82
2023/02/13 16:11:18;;;;;;;5.93;4.07;;;;;;;;;;10540720;28;20053;-82
2023/02/13 16:16:19;;;;;;;4.85;3.92;;;;;;;;;;10560002;28;20064;-81
2023/02/13 16:21:22;;;;;;;20.45;14.48;;;;;;;;;;10560117;28;20487;-81
2023/02/13 16:26:23;;;;;;;5.43;4.00;;;;;;;;;;10541413;28;20027;-82
2023/02/13 16:31:24;;;;;;;5.65;3.60;;;;;;;;;;10541152;28;20032;-81
2023/02/13 16:36:27;;;;;;;7.07;4.15;;;;;;;;;;10548301;28;20039;-82
2023/02/13 16:41:29;;;;;;;15.60;9.82;;;;;;;;;;10541560;28;20097;-82
2023/02/13 16:46:32;;;;;;;9.63;6.20;;;;;;;;;;10540928;28;20039;-82
2023/02/13 16:51:38;;;;;;;4.68;3.90;;;;;;;;;;10540919;28;20398;-81
2023/02/13 16:56:45;;;;;;;5.72;3.10;;;;;;;;;;10539461;28;20091;-81
2023/02/13 17:01:46;;;;;;;4.47;3.30;;;;;;;;;;10539733;28;20032;-80
2023/02/13 17:06:47;;;;;;;6.90;4.43;;;;;;;;;;10557208;28;20127;-82
2023/02/13 17:11:52;;;;;;;9.63;4.75;;;;;;;;;;10558048;28;20351;-81
2023/02/13 17:16:53;;;;;;;11.05;8.07;;;;;;;;;;10538547;28;20363;-81
2023/02/13 17:21:54;;;;;;;8.80;5.78;;;;;;;;;;10550902;28;20028;-82
2023/02/13 17:26:55;;;;;;;12.10;6.28;;;;;;;;;;10541804;28;20054;-86
2023/02/13 17:32:04;;;;;;;9.18;6.88;;;;;;;;;;10539180;28;20032;-85
2023/02/13 17:37:17;;;;;;;6.70;4.93;;;;;;;;;;10527339;28;20028;-85
2023/02/13 17:42:23;;;;;;;7.50;4.97;;;;;;;;;;10560117;28;20044;-85
2023/02/13 17:47:25;;;;;;;8.13;4.72;;;;;;;;;;10544700;28;20074;-85
2023/02/13 17:52:27;;;;;;;8.25;5.82;;;;;;;;;;10562005;28;20081;-85
2023/02/13 17:57:51;;;;;;;10.07;7.25;;;;;;;;;;10560142;28;20028;-85
2023/02/13 18:02:54;;;;;;;8.50;5.32;;;;;;;;;;10596754;22;20040;-85
2023/02/13 18:07:55;;;;;;;7.18;5.00;;;;;;;;;;10592980;28;20095;-85
2023/02/13 18:13:02;;;;;;;6.43;4.53;;;;;;;;;;10590684;28;20016;-83
2023/02/13 18:18:03;;;;;;;6.78;5.10;;;;;;;;;;10574559;28;20028;-83
2023/02/13 18:23:05;;;;;;;7.45;5.28;;;;;;;;;;10572806;28;20112;-83
2023/02/13 18:28:06;;;;;;;6.07;4.93;;;;;;;;;;10575516;28;20384;-83
2023/02/13 18:33:07;;;;;;;7.07;4.85;;;;;;;;;;10573900;28;20115;-83
2023/02/13 18:38:08;;;;;;;5.88;4.90;;;;;;;;;;10572714;28;20019;-85
2023/02/13 18:43:09;;;;;;;6.13;4.82;;;;;;;;;;10591338;28;20053;-85
2023/02/13 18:48:11;;;;;;;6.40;5.78;;;;;;;;;;10572791;28;20122;-85
2023/02/13 18:53:12;;;;;;;5.25;4.05;;;;;;;;;;10570787;28;20076;-84
2023/02/13 18:58:13;;;;;;;7.13;4.85;;;;;;;;;;10574029;28;20480;-85
2023/02/13 19:03:16;;;;;;;6.95;4.45;;;;;;;;;;10579530;28;20043;-85
2023/02/13 19:08:17;;;;;;;8.05;6.40;;;;;;;;;;10622554;28;20043;-82
2023/02/13 19:13:18;;;;;;;4.90;4.35;;;;;;;;;;10579237;28;20500;-83
2023/02/13 19:18:19;;;;;;;6.45;5.38;;;;;;;;;;10574803;28;20024;-83
2023/02/13 19:23:20;;;;;;;8.13;6.22;;;;;;;;;;10571709;28;20487;-85
2023/02/13 19:28:21;;;;;;;5.93;4.40;;;;;;;;;;10572992;28;20062;-84
2023/02/13 19:33:22;;;;;;;6.10;5.25;;;;;;;;;;10578972;28;20024;-84
2023/02/13 19:38:23;;;;;;;7.47;5.68;;;;;;;;;;10590922;28;20035;-84
2023/02/13 19:43:24;;;;;;;6.82;4.88;;;;;;;;;;10571686;28;20027;-83
2023/02/13 19:48:25;;;;;;;8.00;6.65;;;;;;;;;;10569869;28;20027;-84
2023/02/13 19:53:26;;;;;;;5.32;4.28;;;;;;;;;;10573161;28;20438;-85
2023/02/13 19:58:27;;;;;;;6.72;4.68;;;;;;;;;;10573054;28;20049;-84
2023/02/13 20:03:28;;;;;;;3.92;3.53;;;;;;;;;;10577544;28;20031;-84
2023/02/13 20:08:29;;;;;;;6.90;5.50;;;;;;;;;;10578215;28;20091;-84
2023/02/13 20:13:30;;;;;;;7.10;5.10;;;;;;;;;;10595873;28;20566;-84
2023/02/13 20:18:32;;;;;;;5.88;4.53;;;;;;;;;;10599080;28;20039;-82
